createdAt,value
2022-10-24T00:00:01.378Z,13.07
2022-10-24T00:02:48.833Z,12.38
2022-10-24T00:05:36.216Z,11.50
2022-10-24T00:08:23.493Z,12.00
2022-10-24T00:11:12.477Z,11.60
2022-10-24T00:14:03.161Z,12.25
2022-10-24T00:16:50.902Z,12.40
2022-10-24T00:19:38.275Z,12.75
2022-10-24T00:22:25.578Z,12.05
2022-10-24T00:25:12.917Z,13.00
2022-10-24T00:28:00.748Z,13.40
2022-10-24T00:30:52.902Z,12.43
2022-10-24T00:33:40.649Z,12.38
2022-10-24T00:36:29.530Z,12.13
2022-10-24T00:39:16.820Z,11.73
2022-10-24T00:42:04.508Z,11.00
2022-10-24T00:44:55.156Z,11.25
2022-10-24T00:47:44.224Z,10.73
2022-10-24T00:50:32.076Z,10.68
2022-10-24T00:53:20.922Z,10.40
2022-10-24T00:56:09.919Z,10.32
2022-10-24T00:58:59.553Z,10.65
2022-10-24T01:01:48.799Z,10.50
2022-10-24T01:04:38.035Z,10.95
2022-10-24T01:07:47.887Z,11.32
2022-10-24T01:10:45.581Z,12.25
2022-10-24T01:13:44.708Z,11.15
2022-10-24T01:16:40.283Z,11.27
2022-10-24T01:20:25.688Z,12.82
2022-10-24T01:24:02.657Z,13.00
2022-10-24T01:27:21.127Z,13.45
2022-10-24T01:30:11.931Z,13.65
2022-10-24T01:33:04.894Z,13.85
2022-10-24T01:35:57.731Z,12.43
2022-10-24T01:38:53.882Z,14.23
2022-10-24T01:41:43.636Z,13.45
2022-10-24T01:44:38.463Z,13.52
2022-10-24T01:47:32.027Z,13.30
2022-10-24T01:50:22.679Z,13.32
2022-10-24T01:53:11.359Z,13.13
2022-10-24T01:55:59.706Z,11.65
2022-10-24T01:58:47.109Z,12.18
2022-10-24T02:01:36.450Z,11.95
2022-10-24T02:04:27.452Z,12.45
2022-10-24T02:07:17.534Z,12.73
2022-10-24T02:10:11.169Z,12.15
2022-10-24T02:13:04.932Z,11.60
2022-10-24T02:15:56.950Z,11.20
2022-10-24T02:18:44.833Z,10.15
2022-10-24T02:21:44.041Z,11.13
2022-10-24T02:24:38.278Z,9.98
2022-10-24T02:27:34.173Z,9.77
2022-10-24T02:30:25.417Z,9.90
2022-10-24T02:33:14.230Z,9.82
2022-10-24T02:36:02.372Z,9.38
2022-10-24T02:38:53.790Z,10.07
2022-10-24T02:41:44.174Z,9.90
2022-10-24T02:44:33.654Z,9.02
2022-10-24T02:47:22.507Z,9.57
2022-10-24T02:50:11.185Z,9.40
2022-10-24T02:52:58.852Z,8.93
2022-10-24T02:55:47.837Z,9.50
2022-10-24T02:58:35.754Z,9.90
2022-10-24T03:01:23.568Z,8.38
2022-10-24T03:04:11.442Z,8.27
2022-10-24T03:06:58.708Z,7.85
2022-10-24T03:09:46.225Z,9.00
2022-10-24T03:12:35.371Z,7.63
2022-10-24T03:15:23.370Z,7.47
2022-10-24T03:18:11.206Z,7.88
2022-10-24T03:20:58.788Z,6.57
2022-10-24T03:23:46.239Z,6.45
2022-10-24T03:26:33.739Z,6.90
2022-10-24T03:29:22.569Z,7.35
2022-10-24T03:32:10.199Z,6.45
2022-10-24T03:34:57.616Z,7.35
2022-10-24T03:37:45.373Z,6.38
2022-10-24T03:40:32.881Z,5.85
2022-10-24T03:43:21.393Z,6.10
2022-10-24T03:46:10.152Z,6.22
2022-10-24T03:48:57.840Z,6.05
2022-10-24T03:51:45.051Z,6.50
2022-10-24T03:54:32.418Z,6.43
2022-10-24T04:00:13.228Z,5.60
2022-10-24T04:03:02.246Z,5.70
2022-10-24T04:05:49.934Z,6.95
2022-10-24T04:08:37.309Z,6.07
2022-10-24T04:11:24.713Z,5.60
2022-10-24T04:14:12.160Z,5.82
2022-10-24T04:16:59.487Z,5.68
2022-10-24T04:19:48.290Z,5.45
2022-10-24T04:22:36.152Z,6.70
2022-10-24T04:25:24.040Z,6.07
2022-10-24T04:28:11.569Z,4.78
2022-10-24T04:30:59.202Z,4.70
2022-10-24T04:33:46.735Z,5.43
2022-10-24T04:36:36.101Z,5.28
2022-10-24T04:39:23.751Z,5.90
2022-10-24T04:42:13.312Z,5.57
2022-10-24T04:45:00.767Z,4.80
2022-10-24T04:47:48.406Z,5.05
2022-10-24T04:50:36.014Z,5.13
2022-10-24T04:53:25.289Z,4.80
2022-10-24T04:56:12.928Z,5.40
2022-10-24T04:59:00.320Z,4.82
2022-10-24T05:01:47.784Z,5.03
2022-10-24T05:04:35.589Z,4.85
2022-10-24T05:07:23.083Z,4.70
2022-10-24T05:10:13.825Z,5.63
2022-10-24T05:13:01.510Z,5.90
2022-10-24T05:15:48.809Z,5.35
2022-10-24T05:18:36.455Z,5.30
2022-10-24T05:21:23.708Z,5.38
2022-10-24T05:24:11.481Z,5.32
2022-10-24T05:27:00.306Z,5.30
2022-10-24T05:29:48.090Z,4.95
2022-10-24T05:32:38.729Z,4.30
2022-10-24T05:35:27.470Z,4.43
2022-10-24T05:38:14.981Z,4.30
2022-10-24T05:41:02.334Z,4.70
2022-10-24T05:43:50.982Z,4.03
2022-10-24T05:46:38.607Z,4.57
2022-10-24T05:49:26.121Z,4.65
2022-10-24T05:52:13.571Z,3.90
2022-10-24T05:55:08.732Z,4.15
2022-10-24T05:57:56.558Z,4.35
2022-10-24T06:00:46.359Z,4.82
2022-10-24T06:03:36.949Z,5.22
2022-10-24T06:06:24.998Z,4.60
2022-10-24T06:09:13.589Z,5.28
2022-10-24T06:12:00.988Z,5.38
2022-10-24T06:14:48.350Z,5.53
2022-10-24T06:17:37.586Z,4.47
2022-10-24T06:20:25.153Z,4.90
2022-10-24T06:23:13.017Z,4.63
2022-10-24T06:26:02.837Z,4.53
2022-10-24T06:28:50.336Z,4.57
2022-10-24T06:31:38.478Z,4.38
2022-10-24T06:34:27.769Z,5.30
2022-10-24T06:37:15.577Z,5.10
2022-10-24T06:40:02.895Z,4.03
2022-10-24T06:42:50.489Z,4.82
2022-10-24T06:45:41.845Z,5.10
2022-10-24T06:48:29.599Z,4.72
2022-10-24T06:51:18.595Z,4.85
2022-10-24T06:54:06.654Z,5.70
2022-10-24T06:56:54.145Z,5.20
2022-10-24T06:59:41.648Z,5.55
2022-10-24T07:02:29.288Z,5.05
2022-10-24T07:05:17.424Z,5.70
2022-10-24T07:08:07.290Z,5.38
2022-10-24T07:10:54.812Z,5.38
2022-10-24T07:13:42.401Z,5.07
2022-10-24T07:16:30.300Z,4.78
2022-10-24T07:19:17.496Z,4.65
2022-10-24T07:22:05.130Z,5.28
2022-10-24T07:25:00.612Z,5.30
2022-10-24T07:27:49.597Z,4.45
2022-10-24T07:30:37.699Z,4.63
2022-10-24T07:33:25.505Z,4.88
2022-10-24T07:36:20.721Z,4.85
2022-10-24T07:41:57.125Z,4.70
2022-10-24T07:44:44.821Z,4.22
2022-10-24T07:47:32.560Z,4.25
2022-10-24T07:50:20.433Z,3.92
2022-10-24T07:53:10.312Z,3.65
2022-10-24T07:56:02.198Z,3.85
2022-10-24T07:58:51.191Z,4.15
2022-10-24T08:01:38.891Z,3.83
2022-10-24T08:04:26.667Z,3.90
2022-10-24T08:07:14.375Z,4.00
2022-10-24T08:10:02.008Z,3.70
2022-10-24T08:12:49.555Z,3.58
2022-10-24T08:15:39.031Z,3.53
2022-10-24T08:18:30.106Z,3.33
2022-10-24T08:21:20.888Z,3.17
2022-10-24T08:24:09.123Z,3.58
2022-10-24T08:26:56.991Z,3.40
2022-10-24T08:29:44.660Z,2.90
2022-10-24T08:32:33.197Z,2.88
2022-10-24T08:35:22.158Z,3.15
2022-10-24T08:38:09.932Z,2.88
2022-10-24T08:40:58.162Z,3.00
2022-10-24T08:43:45.947Z,3.33
2022-10-24T08:46:52.138Z,2.90
2022-10-24T08:49:50.295Z,2.92
2022-10-24T08:52:44.910Z,2.65
2022-10-24T08:55:49.127Z,3.05
2022-10-24T08:58:41.943Z,2.42
2022-10-24T09:01:37.148Z,2.90
2022-10-24T09:04:30.134Z,2.75
2022-10-24T09:07:22.210Z,3.25
2022-10-24T09:10:20.307Z,2.90
2022-10-24T09:13:16.000Z,3.00
2022-10-24T09:16:04.626Z,2.70
2022-10-24T09:18:57.702Z,2.83
2022-10-24T09:21:46.051Z,2.63
2022-10-24T09:24:45.772Z,2.40
2022-10-24T09:27:36.706Z,2.70
2022-10-24T09:30:31.427Z,2.22
2022-10-24T09:33:29.498Z,2.67
2022-10-24T09:36:20.279Z,2.08
2022-10-24T09:39:28.024Z,2.33
2022-10-24T09:42:23.886Z,1.95
2022-10-24T09:45:43.009Z,2.72
2022-10-24T09:48:37.505Z,2.17
2022-10-24T09:51:33.841Z,2.42
2022-10-24T09:54:30.227Z,2.38
2022-10-24T09:57:19.361Z,2.25
2022-10-24T10:00:08.915Z,2.03
2022-10-24T10:03:06.488Z,1.70
2022-10-24T10:05:58.497Z,1.70
2022-10-24T10:08:52.242Z,2.08
2022-10-24T10:11:40.777Z,2.40
2022-10-24T10:14:41.635Z,1.83
2022-10-24T10:17:31.959Z,1.80
2022-10-24T10:20:28.328Z,1.52
2022-10-24T10:23:26.626Z,1.90
2022-10-24T10:26:25.320Z,1.73
2022-10-24T10:29:24.917Z,2.10
2022-10-24T10:32:24.453Z,2.00
2022-10-24T10:35:21.296Z,2.15
2022-10-24T10:38:28.074Z,1.77
2022-10-24T10:41:33.992Z,2.13
2022-10-24T10:44:48.190Z,1.85
2022-10-24T10:47:52.305Z,1.95
2022-10-24T10:50:47.469Z,2.00
2022-10-24T10:53:41.752Z,2.13
2022-10-24T10:56:36.269Z,2.63
2022-10-24T10:59:42.387Z,1.67
2022-10-24T11:03:18.097Z,2.05
2022-10-24T11:06:27.746Z,1.98
2022-10-24T11:09:32.332Z,2.22
2022-10-24T11:12:26.234Z,2.65
2022-10-24T11:15:22.870Z,2.10
2022-10-24T11:18:19.272Z,2.13
2022-10-24T11:21:10.643Z,1.55
2022-10-24T11:24:04.462Z,1.63
2022-10-24T11:27:00.986Z,2.30
2022-10-24T11:29:56.631Z,1.90
2022-10-24T11:32:53.620Z,1.98
2022-10-24T11:36:07.634Z,1.80
2022-10-24T11:39:02.678Z,2.20
2022-10-24T11:41:59.624Z,2.30
2022-10-24T11:44:54.964Z,2.45
2022-10-24T11:48:01.158Z,1.88
2022-10-24T11:50:55.374Z,2.30
2022-10-24T11:53:54.694Z,2.70
2022-10-24T11:56:48.483Z,2.20
2022-10-24T11:59:38.515Z,2.95
2022-10-24T12:03:09.309Z,2.35
2022-10-24T12:06:18.115Z,2.20
2022-10-24T12:09:44.417Z,2.40
2022-10-24T12:12:56.859Z,2.40
2022-10-24T12:15:55.595Z,2.50
2022-10-24T12:18:48.507Z,3.80
2022-10-24T12:21:42.788Z,3.28
2022-10-24T12:24:34.714Z,2.97
2022-10-24T12:27:31.747Z,3.25
2022-10-24T12:30:24.254Z,3.03
2022-10-24T12:33:25.895Z,2.80
2022-10-24T12:36:13.641Z,2.60
2022-10-24T12:39:06.165Z,3.10
2022-10-24T12:41:56.000Z,3.13
2022-10-24T12:44:46.875Z,2.95
2022-10-24T12:47:40.894Z,3.03
2022-10-24T12:51:15.245Z,3.13
2022-10-24T12:54:19.393Z,3.33
2022-10-24T12:57:29.741Z,2.60
2022-10-24T13:00:26.667Z,2.55
2022-10-24T13:03:23.895Z,2.78
2022-10-24T13:06:20.860Z,3.70
2022-10-24T13:09:25.139Z,3.33
2022-10-24T13:12:40.436Z,3.25
2022-10-24T13:15:42.245Z,3.58
2022-10-24T13:18:47.912Z,2.55
2022-10-24T13:21:46.726Z,2.95
2022-10-24T13:24:40.005Z,2.97
2022-10-24T13:27:32.308Z,3.25
2022-10-24T13:30:29.289Z,2.85
2022-10-24T13:33:46.388Z,3.53
2022-10-24T13:36:35.872Z,3.40
2022-10-24T13:39:29.839Z,3.58
2022-10-24T13:42:32.994Z,3.40
2022-10-24T13:45:28.929Z,3.55
2022-10-24T13:48:21.525Z,2.80
2022-10-24T13:51:18.593Z,3.83
2022-10-24T13:54:16.231Z,4.25
2022-10-24T13:57:03.952Z,3.47
2022-10-24T13:59:59.646Z,3.60
2022-10-24T14:02:47.517Z,3.47
2022-10-24T14:05:41.666Z,3.10
2022-10-24T14:08:34.852Z,2.80
2022-10-24T14:11:26.920Z,3.20
2022-10-24T14:14:28.762Z,3.83
2022-10-24T14:17:26.184Z,4.78
2022-10-24T14:20:24.445Z,3.88
2022-10-24T14:23:29.504Z,4.50
2022-10-24T14:26:23.785Z,3.60
2022-10-24T14:29:23.731Z,4.65
2022-10-24T14:32:16.559Z,4.50
2022-10-24T14:35:13.659Z,4.80
2022-10-24T14:38:04.916Z,4.05
2022-10-24T14:41:07.792Z,4.35
2022-10-24T14:43:58.111Z,4.00
2022-10-24T14:46:48.038Z,4.32
2022-10-24T14:49:38.211Z,3.92
2022-10-24T14:52:37.123Z,4.05
2022-10-24T14:55:25.077Z,4.10
2022-10-24T14:58:25.639Z,4.15
2022-10-24T15:01:19.631Z,3.92
2022-10-24T15:04:22.564Z,4.95
2022-10-24T15:07:31.344Z,4.50
2022-10-24T15:10:30.224Z,4.93
2022-10-24T15:13:21.661Z,4.35
2022-10-24T15:16:28.367Z,4.32
2022-10-24T15:19:19.443Z,4.00
2022-10-24T15:22:06.781Z,4.90
2022-10-24T15:24:57.907Z,3.45
2022-10-24T15:27:46.925Z,3.88
2022-10-24T15:30:37.932Z,4.88
2022-10-24T15:33:25.339Z,4.35
2022-10-24T15:36:22.943Z,4.22
2022-10-24T15:39:17.397Z,4.07
2022-10-24T15:42:06.301Z,3.92
2022-10-24T15:44:53.957Z,4.13
2022-10-24T15:47:41.380Z,3.95
2022-10-24T15:50:28.529Z,4.25
2022-10-24T15:53:20.023Z,4.03
2022-10-24T15:56:08.468Z,4.15
2022-10-24T15:58:57.450Z,4.40
2022-10-24T16:01:49.944Z,4.95
2022-10-24T16:04:40.411Z,4.68
2022-10-24T16:07:27.949Z,4.68
2022-10-24T16:10:19.838Z,4.57
2022-10-24T16:13:07.610Z,4.93
2022-10-24T16:15:56.442Z,5.82
2022-10-24T16:18:44.098Z,5.85
2022-10-24T16:21:31.498Z,4.65
2022-10-24T16:24:18.902Z,5.75
2022-10-24T16:27:06.261Z,6.68
2022-10-24T16:29:53.938Z,6.72
2022-10-24T16:32:44.245Z,6.78
2022-10-24T16:35:35.394Z,7.78
2022-10-24T16:38:22.929Z,7.35
2022-10-24T16:41:16.807Z,8.15
2022-10-24T16:44:06.517Z,6.75
2022-10-24T16:46:55.169Z,6.95
2022-10-24T16:49:45.453Z,6.40
2022-10-24T16:52:33.319Z,5.82
2022-10-24T16:55:21.212Z,6.60
2022-10-24T16:58:08.805Z,5.60
2022-10-24T17:01:04.346Z,5.70
2022-10-24T17:03:52.499Z,5.72
2022-10-24T17:06:41.787Z,5.63
2022-10-24T17:09:29.641Z,5.63
2022-10-24T17:12:17.987Z,5.57
2022-10-24T17:15:06.801Z,5.25
2022-10-24T17:17:54.483Z,6.75
2022-10-24T17:20:45.220Z,7.07
2022-10-24T17:23:35.257Z,7.95
2022-10-24T17:26:25.499Z,7.82
2022-10-24T17:29:19.398Z,9.05
2022-10-24T17:32:07.864Z,9.77
2022-10-24T17:34:56.250Z,11.00
2022-10-24T17:37:55.817Z,10.63
2022-10-24T17:40:48.707Z,9.50
2022-10-24T17:43:37.351Z,9.55
2022-10-24T17:46:25.832Z,18.52
2022-10-24T17:49:17.891Z,16.70
2022-10-24T17:52:09.377Z,12.02
2022-10-24T17:54:57.404Z,11.45
2022-10-24T17:57:46.802Z,11.50
2022-10-24T18:00:35.704Z,9.95
2022-10-24T18:03:23.728Z,9.45
2022-10-24T18:06:12.844Z,8.70
2022-10-24T18:09:00.706Z,9.07
2022-10-24T18:11:48.633Z,9.20
2022-10-24T18:14:39.640Z,8.18
2022-10-24T18:17:27.576Z,8.73
2022-10-24T18:20:16.434Z,9.02
2022-10-24T18:23:04.727Z,8.35
2022-10-24T18:25:51.868Z,8.85
2022-10-24T18:28:39.718Z,8.98
2022-10-24T18:31:35.145Z,8.55
2022-10-24T18:34:25.301Z,7.50
2022-10-24T18:37:15.260Z,7.18
2022-10-24T18:40:05.627Z,7.78
2022-10-24T18:42:58.882Z,7.40
2022-10-24T18:45:48.360Z,7.97
2022-10-24T18:48:37.987Z,8.10
2022-10-24T18:51:34.938Z,7.18
2022-10-24T18:54:23.485Z,7.85
2022-10-24T18:57:23.833Z,7.88
2022-10-24T19:00:17.409Z,6.85
2022-10-24T19:03:21.787Z,7.50
2022-10-24T19:06:23.685Z,7.47
2022-10-24T19:09:17.655Z,8.88
2022-10-24T19:12:07.179Z,8.25
2022-10-24T19:14:54.915Z,7.13
2022-10-24T19:17:42.786Z,7.20
2022-10-24T19:20:35.733Z,7.45
2022-10-24T19:23:24.845Z,6.60
2022-10-24T19:26:13.945Z,6.63
2022-10-24T19:29:04.818Z,6.82
2022-10-24T19:31:53.399Z,7.53
2022-10-24T19:34:42.604Z,6.82
2022-10-24T19:37:30.331Z,7.50
2022-10-24T19:40:19.381Z,7.70
2022-10-24T19:43:06.929Z,6.93
2022-10-24T19:46:07.801Z,6.88
2022-10-24T19:49:03.817Z,6.75
2022-10-24T19:51:52.493Z,6.93
2022-10-24T19:54:40.659Z,7.57
2022-10-24T19:57:30.194Z,6.03
2022-10-24T20:00:21.155Z,6.50
2022-10-24T20:03:08.951Z,6.70
2022-10-24T20:06:00.502Z,8.05
2022-10-24T20:08:49.329Z,5.60
2022-10-24T20:11:36.570Z,6.65
2022-10-24T20:14:25.791Z,6.93
2022-10-24T20:17:13.352Z,7.32
2022-10-24T20:20:01.180Z,7.07
2022-10-24T20:22:49.429Z,6.72
2022-10-24T20:25:37.181Z,7.78
2022-10-24T20:28:24.614Z,7.78
2022-10-24T20:31:22.159Z,6.88
2022-10-24T20:34:10.864Z,6.50
2022-10-24T20:36:58.424Z,6.80
2022-10-24T20:39:45.874Z,6.57
2022-10-24T20:42:33.381Z,6.50
2022-10-24T20:45:22.947Z,7.20
2022-10-24T20:48:13.286Z,6.78
2022-10-24T20:51:11.701Z,6.60
2022-10-24T20:53:59.497Z,6.35
2022-10-24T20:56:55.935Z,8.40
2022-10-24T20:59:43.233Z,7.65
2022-10-24T21:02:30.796Z,7.43
2022-10-24T21:05:19.971Z,7.38
2022-10-24T21:08:08.001Z,7.07
2022-10-24T21:10:55.417Z,7.75
2022-10-24T21:13:43.095Z,7.53
2022-10-24T21:16:31.422Z,7.22
2022-10-24T21:19:18.876Z,8.05
2022-10-24T21:22:07.800Z,7.18
2022-10-24T21:24:55.492Z,7.00
2022-10-24T21:27:45.760Z,7.38
2022-10-24T21:30:33.584Z,7.55
2022-10-24T21:33:20.955Z,6.88
2022-10-24T21:36:11.704Z,6.60
2022-10-24T21:39:00.591Z,6.47
2022-10-24T21:41:47.982Z,6.45
2022-10-24T21:44:36.334Z,6.68
2022-10-24T21:47:23.926Z,6.20
2022-10-24T21:50:11.518Z,6.30
2022-10-24T21:52:59.913Z,6.65
2022-10-24T21:55:48.642Z,6.32
2022-10-24T21:58:36.675Z,7.15
2022-10-24T22:01:26.560Z,6.97
2022-10-24T22:04:15.426Z,6.47
2022-10-24T22:07:07.341Z,6.47
2022-10-24T22:09:54.862Z,5.80
2022-10-24T22:12:43.632Z,6.32
2022-10-24T22:15:33.190Z,6.00
2022-10-24T22:18:20.940Z,5.80
2022-10-24T22:21:15.763Z,5.95
2022-10-24T22:26:57.763Z,6.10
2022-10-24T22:29:46.698Z,5.93
2022-10-24T22:32:34.933Z,5.65
2022-10-24T22:35:23.766Z,5.18
2022-10-24T22:38:11.729Z,5.60
2022-10-24T22:41:01.526Z,5.15
2022-10-24T22:43:50.177Z,4.72
2022-10-24T22:47:03.026Z,5.03
2022-10-24T22:50:02.011Z,4.97
2022-10-24T22:52:50.186Z,4.50
2022-10-24T22:55:45.647Z,4.35
2022-10-24T22:58:33.922Z,4.45
2022-10-24T23:01:40.046Z,3.88
2022-10-24T23:04:37.456Z,3.90
2022-10-24T23:07:32.212Z,3.50
2022-10-24T23:10:23.199Z,3.28
2022-10-24T23:13:11.316Z,3.13
2022-10-24T23:16:06.639Z,3.58
2022-10-24T23:21:51.594Z,3.05
2022-10-24T23:24:39.490Z,3.05
2022-10-24T23:27:36.047Z,3.25
2022-10-24T23:30:25.377Z,3.22
2022-10-24T23:33:27.420Z,3.70
2022-10-24T23:36:23.923Z,4.90
2022-10-24T23:39:16.641Z,3.92
2022-10-24T23:42:05.282Z,3.90
2022-10-24T23:44:53.332Z,4.05
2022-10-24T23:47:59.562Z,3.80
2022-10-24T23:50:55.684Z,3.75
2022-10-24T23:53:50.678Z,3.92
2022-10-24T23:56:42.114Z,3.90
2022-10-24T23:59:30.216Z,4.07
